<?xml version="1.0" encoding="UTF-8" standalone="no" ?>
<gpx xmlns="http://www.topografix.com/GPX/1/1" xmlns:xsi="http://www.w3.org/2001/XMLSchema-instance" xsi:schemaLocation="http://www.topografix.com/GPX/1/1 http://www.topografix.com/GPX/1/1/gpx.xsd" version="1.1" creator="VisuGPX - https://www.visugpx.com">
  <metadata>
    <name>#FONT/ randonnee_Malmontagne_pk_croix_Montmorin</name>
    <desc><![CDATA[Au départ de la Croix de Montmorin, balade en forêt de Fontainebleau]]></desc>
  </metadata>
  <trk>
    <name><![CDATA[Randonnée Malmontagne PK Croix Montmorin-17347522]]></name>
    <extensions>
      <line xmlns="http://www.topografix.com/GPX/gpx_style/0/2">
        <color>0000FF</color>
        <width>4</width>
      </line>
    </extensions>
    <trkseg>
      <trkpt lat="48.39031" lon="2.75448">
        <ele>89</ele>
        <time>2023-08-04T06:04:45Z</time>
      </trkpt>
      <trkpt lat="48.39007" lon="2.74962">
        <ele>88</ele>
        <time>2023-08-04T06:11:57Z</time>
      </trkpt>
      <trkpt lat="48.38965" lon="2.74352">
        <ele>85</ele>
        <time>2023-08-04T06:21:00Z</time>
      </trkpt>
      <trkpt lat="48.38972" lon="2.73543">
        <ele>86</ele>
        <time>2023-08-04T06:32:57Z</time>
      </trkpt>
      <trkpt lat="48.39039" lon="2.73103">
        <ele>88</ele>
        <time>2023-08-04T06:39:37Z</time>
      </trkpt>
      <trkpt lat="48.39089" lon="2.72945">
        <ele>89</ele>
        <time>2023-08-04T06:42:12Z</time>
      </trkpt>
      <trkpt lat="48.39155" lon="2.72859">
        <ele>92</ele>
        <time>2023-08-04T06:44:09Z</time>
      </trkpt>
      <trkpt lat="48.39091" lon="2.72538">
        <ele>90</ele>
        <time>2023-08-04T06:49:06Z</time>
      </trkpt>
      <trkpt lat="48.39036" lon="2.72339">
        <ele>92</ele>
        <time>2023-08-04T06:52:17Z</time>
      </trkpt>
      <trkpt lat="48.38864" lon="2.72456">
        <ele>92</ele>
        <time>2023-08-04T06:56:29Z</time>
      </trkpt>
      <trkpt lat="48.386" lon="2.72553">
        <ele>82</ele>
        <time>2023-08-04T07:02:31Z</time>
      </trkpt>
      <trkpt lat="48.38345" lon="2.7266">
        <ele>84</ele>
        <time>2023-08-04T07:08:25Z</time>
      </trkpt>
      <trkpt lat="48.38119" lon="2.72738">
        <ele>94</ele>
        <time>2023-08-04T07:13:34Z</time>
      </trkpt>
      <trkpt lat="48.38012" lon="2.72772">
        <ele>92</ele>
        <time>2023-08-04T07:16:00Z</time>
      </trkpt>
      <trkpt lat="48.3779" lon="2.72872">
        <ele>89</ele>
        <time>2023-08-04T07:21:09Z</time>
      </trkpt>
      <trkpt lat="48.37348" lon="2.73052">
        <ele>92</ele>
        <time>2023-08-04T07:31:20Z</time>
      </trkpt>
      <trkpt lat="48.37067" lon="2.7328">
        <ele>93</ele>
        <time>2023-08-04T07:38:26Z</time>
      </trkpt>
      <trkpt lat="48.37197" lon="2.73721">
        <ele>101</ele>
        <time>2023-08-04T07:45:34Z</time>
      </trkpt>
      <trkpt lat="48.37248" lon="2.73998">
        <ele>102</ele>
        <time>2023-08-04T07:49:49Z</time>
      </trkpt>
      <trkpt lat="48.37303" lon="2.74193">
        <ele>91</ele>
        <time>2023-08-04T07:52:57Z</time>
      </trkpt>
      <trkpt lat="48.37303" lon="2.74378">
        <ele>96</ele>
        <time>2023-08-04T07:55:41Z</time>
      </trkpt>
      <trkpt lat="48.37245" lon="2.74417">
        <ele>97</ele>
        <time>2023-08-04T07:57:05Z</time>
      </trkpt>
      <trkpt lat="48.37203" lon="2.74465">
        <ele>101</ele>
        <time>2023-08-04T07:58:16Z</time>
      </trkpt>
      <trkpt lat="48.37155" lon="2.74426">
        <ele>105</ele>
        <time>2023-08-04T07:59:28Z</time>
      </trkpt>
      <trkpt lat="48.371" lon="2.74446">
        <ele>113</ele>
        <time>2023-08-04T08:00:44Z</time>
      </trkpt>
      <trkpt lat="48.37048" lon="2.74446">
        <ele>122</ele>
        <time>2023-08-04T08:01:53Z</time>
      </trkpt>
      <trkpt lat="48.37019" lon="2.74431">
        <ele>126</ele>
        <time>2023-08-04T08:02:34Z</time>
      </trkpt>
      <trkpt lat="48.3699" lon="2.74465">
        <ele>131</ele>
        <time>2023-08-04T08:03:23Z</time>
      </trkpt>
      <trkpt lat="48.36935" lon="2.74465">
        <ele>133</ele>
        <time>2023-08-04T08:04:37Z</time>
      </trkpt>
      <trkpt lat="48.3688" lon="2.74451">
        <ele>131</ele>
        <time>2023-08-04T08:05:51Z</time>
      </trkpt>
      <trkpt lat="48.36835" lon="2.74684">
        <ele>130</ele>
        <time>2023-08-04T08:09:26Z</time>
      </trkpt>
      <trkpt lat="48.36809" lon="2.7481">
        <ele>130</ele>
        <time>2023-08-04T08:11:23Z</time>
      </trkpt>
      <trkpt lat="48.36777" lon="2.74859">
        <ele>130</ele>
        <time>2023-08-04T08:12:24Z</time>
      </trkpt>
      <trkpt lat="48.36764" lon="2.74956">
        <ele>136</ele>
        <time>2023-08-04T08:13:52Z</time>
      </trkpt>
      <trkpt lat="48.36725" lon="2.7501">
        <ele>134</ele>
        <time>2023-08-04T08:15:03Z</time>
      </trkpt>
      <trkpt lat="48.36732" lon="2.75122">
        <ele>135</ele>
        <time>2023-08-04T08:16:42Z</time>
      </trkpt>
      <trkpt lat="48.36754" lon="2.75258">
        <ele>136</ele>
        <time>2023-08-04T08:18:46Z</time>
      </trkpt>
      <trkpt lat="48.36738" lon="2.75404">
        <ele>136</ele>
        <time>2023-08-04T08:20:58Z</time>
      </trkpt>
      <trkpt lat="48.36709" lon="2.7553">
        <ele>130</ele>
        <time>2023-08-04T08:22:56Z</time>
      </trkpt>
      <trkpt lat="48.36748" lon="2.75715">
        <ele>131</ele>
        <time>2023-08-04T08:25:48Z</time>
      </trkpt>
      <trkpt lat="48.36728" lon="2.759">
        <ele>116</ele>
        <time>2023-08-04T08:28:34Z</time>
      </trkpt>
      <trkpt lat="48.36709" lon="2.76138">
        <ele>103</ele>
        <time>2023-08-04T08:32:07Z</time>
      </trkpt>
      <trkpt lat="48.36716" lon="2.76284">
        <ele>102</ele>
        <time>2023-08-04T08:34:16Z</time>
      </trkpt>
      <trkpt lat="48.36816" lon="2.76721">
        <ele>98</ele>
        <time>2023-08-04T08:41:06Z</time>
      </trkpt>
      <trkpt lat="48.3687" lon="2.76958">
        <ele>102</ele>
        <time>2023-08-04T08:44:48Z</time>
      </trkpt>
      <trkpt lat="48.36967" lon="2.7708">
        <ele>103</ele>
        <time>2023-08-04T08:47:37Z</time>
      </trkpt>
      <trkpt lat="48.36993" lon="2.77206">
        <ele>100</ele>
        <time>2023-08-04T08:49:34Z</time>
      </trkpt>
      <trkpt lat="48.37493" lon="2.7725">
        <ele>99</ele>
        <time>2023-08-04T09:00:42Z</time>
      </trkpt>
      <trkpt lat="48.37761" lon="2.77284">
        <ele>110</ele>
        <time>2023-08-04T09:06:41Z</time>
      </trkpt>
      <trkpt lat="48.37807" lon="2.77226">
        <ele>108</ele>
        <time>2023-08-04T09:08:01Z</time>
      </trkpt>
      <trkpt lat="48.37839" lon="2.77279">
        <ele>106</ele>
        <time>2023-08-04T09:09:05Z</time>
      </trkpt>
      <trkpt lat="48.37924" lon="2.77284">
        <ele>105</ele>
        <time>2023-08-04T09:10:58Z</time>
      </trkpt>
      <trkpt lat="48.3795" lon="2.77127">
        <ele>106</ele>
        <time>2023-08-04T09:13:22Z</time>
      </trkpt>
      <trkpt lat="48.37995" lon="2.76813">
        <ele>106</ele>
        <time>2023-08-04T09:18:06Z</time>
      </trkpt>
      <trkpt lat="48.38052" lon="2.76398">
        <ele>106</ele>
        <time>2023-08-04T09:24:22Z</time>
      </trkpt>
      <trkpt lat="48.38121" lon="2.75848">
        <ele>102</ele>
        <time>2023-08-04T09:32:38Z</time>
      </trkpt>
      <trkpt lat="48.38563" lon="2.75946">
        <ele>98</ele>
        <time>2023-08-04T09:42:34Z</time>
      </trkpt>
      <trkpt lat="48.38653" lon="2.75446">
        <ele>94</ele>
        <time>2023-08-04T09:50:13Z</time>
      </trkpt>
      <trkpt lat="48.38998" lon="2.75486">
        <ele>89</ele>
        <time>2023-08-04T09:57:55Z</time>
      </trkpt>
    </trkseg>
  </trk>
</gpx>